sensor_id;sensor_type;location;lat;lon;timestamp;temperature;humidity
15111;DHT22;7656;51.954;7.998;2022-11-21T00:01:55;3.30;99.90
15111;DHT22;7656;51.954;7.998;2022-11-21T00:06:16;3.30;99.90
15111;DHT22;7656;51.954;7.998;2022-11-21T00:10:38;3.40;99.90
15111;DHT22;7656;51.954;7.998;2022-11-21T00:15:00;3.40;99.90
15111;DHT22;7656;51.954;7.998;2022-11-21T00:19:21;3.50;99.90
15111;DHT22;7656;51.954;7.998;2022-11-21T00:23:43;3.60;99.90
15111;DHT22;7656;51.954;7.998;2022-11-21T00:28:05;3.70;99.90
15111;DHT22;7656;51.954;7.998;2022-11-21T00:32:26;3.70;99.90
15111;DHT22;7656;51.954;7.998;2022-11-21T00:36:47;3.70;99.90
15111;DHT22;7656;51.954;7.998;2022-11-21T00:41:09;3.70;99.90
15111;DHT22;7656;51.954;7.998;2022-11-21T00:45:30;3.70;99.90
15111;DHT22;7656;51.954;7.998;2022-11-21T00:49:51;3.70;99.90
15111;DHT22;7656;51.954;7.998;2022-11-21T00:54:12;3.70;99.90
15111;DHT22;7656;51.954;7.998;2022-11-21T00:58:34;3.70;99.90
15111;DHT22;7656;51.954;7.998;2022-11-21T01:02:55;3.80;99.90
15111;DHT22;7656;51.954;7.998;2022-11-21T01:07:16;3.80;99.90
15111;DHT22;7656;51.954;7.998;2022-11-21T01:11:37;3.60;99.90
15111;DHT22;7656;51.954;7.998;2022-11-21T01:16:05;3.70;99.90
15111;DHT22;7656;51.954;7.998;2022-11-21T01:20:31;3.70;99.90
15111;DHT22;7656;51.954;7.998;2022-11-21T01:24:52;3.60;99.90
15111;DHT22;7656;51.954;7.998;2022-11-21T01:29:13;3.70;99.90
15111;DHT22;7656;51.954;7.998;2022-11-21T01:33:35;3.50;99.90
15111;DHT22;7656;51.954;7.998;2022-11-21T01:37:56;3.50;99.90
15111;DHT22;7656;51.954;7.998;2022-11-21T01:42:17;3.50;99.90
15111;DHT22;7656;51.954;7.998;2022-11-21T01:46:38;3.40;99.90
15111;DHT22;7656;51.954;7.998;2022-11-21T01:51:25;3.50;99.90
15111;DHT22;7656;51.954;7.998;2022-11-21T01:56:02;3.50;99.90
15111;DHT22;7656;51.954;7.998;2022-11-21T02:00:26;3.80;99.90
15111;DHT22;7656;51.954;7.998;2022-11-21T02:04:50;3.70;99.90
15111;DHT22;7656;51.954;7.998;2022-11-21T02:09:12;3.70;99.90
15111;DHT22;7656;51.954;7.998;2022-11-21T02:13:33;3.60;99.90
15111;DHT22;7656;51.954;7.998;2022-11-21T02:17:54;3.60;99.90
15111;DHT22;7656;51.954;7.998;2022-11-21T02:26:58;3.80;99.90
15111;DHT22;7656;51.954;7.998;2022-11-21T02:31:20;3.80;99.90
15111;DHT22;7656;51.954;7.998;2022-11-21T02:35:41;3.80;99.90
15111;DHT22;7656;51.954;7.998;2022-11-21T02:40:08;3.80;99.90
15111;DHT22;7656;51.954;7.998;2022-11-21T02:44:42;3.60;99.90
15111;DHT22;7656;51.954;7.998;2022-11-21T02:49:08;3.60;99.90
15111;DHT22;7656;51.954;7.998;2022-11-21T02:53:29;3.60;99.90
15111;DHT22;7656;51.954;7.998;2022-11-21T02:57:51;3.40;99.90
15111;DHT22;7656;51.954;7.998;2022-11-21T03:02:12;3.30;99.90
15111;DHT22;7656;51.954;7.998;2022-11-21T03:06:33;3.30;99.90
15111;DHT22;7656;51.954;7.998;2022-11-21T03:10:54;3.40;99.90
15111;DHT22;7656;51.954;7.998;2022-11-21T03:15:16;3.40;99.90
15111;DHT22;7656;51.954;7.998;2022-11-21T03:19:37;3.40;99.90
15111;DHT22;7656;51.954;7.998;2022-11-21T03:23:58;3.50;99.90
15111;DHT22;7656;51.954;7.998;2022-11-21T03:28:19;3.50;99.90
15111;DHT22;7656;51.954;7.998;2022-11-21T03:32:40;3.60;99.90
15111;DHT22;7656;51.954;7.998;2022-11-21T03:37:01;3.60;99.90
15111;DHT22;7656;51.954;7.998;2022-11-21T03:41:26;3.60;99.90
15111;DHT22;7656;51.954;7.998;2022-11-21T03:45:50;3.60;99.90
15111;DHT22;7656;51.954;7.998;2022-11-21T03:50:11;3.70;99.90
15111;DHT22;7656;51.954;7.998;2022-11-21T03:54:34;3.60;99.90
15111;DHT22;7656;51.954;7.998;2022-11-21T03:58:55;3.60;99.90
15111;DHT22;7656;51.954;7.998;2022-11-21T04:03:16;3.70;99.90
15111;DHT22;7656;51.954;7.998;2022-11-21T04:07:37;3.70;99.90
15111;DHT22;7656;51.954;7.998;2022-11-21T04:11:58;3.70;99.90
15111;DHT22;7656;51.954;7.998;2022-11-21T04:16:20;3.70;99.90
15111;DHT22;7656;51.954;7.998;2022-11-21T04:20:41;3.70;99.90
15111;DHT22;7656;51.954;7.998;2022-11-21T04:25:02;3.70;99.90
15111;DHT22;7656;51.954;7.998;2022-11-21T04:29:23;3.70;99.90
15111;DHT22;7656;51.954;7.998;2022-11-21T04:33:44;3.70;99.90
15111;DHT22;7656;51.954;7.998;2022-11-21T04:38:05;3.70;99.90
15111;DHT22;7656;51.954;7.998;2022-11-21T04:42:26;3.70;99.90
15111;DHT22;7656;51.954;7.998;2022-11-21T04:46:47;3.70;99.90
15111;DHT22;7656;51.954;7.998;2022-11-21T04:51:08;3.70;99.90
15111;DHT22;7656;51.954;7.998;2022-11-21T04:55:30;3.70;99.90
15111;DHT22;7656;51.954;7.998;2022-11-21T04:59:52;3.70;99.90
15111;DHT22;7656;51.954;7.998;2022-11-21T05:04:13;3.70;99.90
15111;DHT22;7656;51.954;7.998;2022-11-21T05:08:34;3.70;99.90
15111;DHT22;7656;51.954;7.998;2022-11-21T05:12:59;3.60;99.90
15111;DHT22;7656;51.954;7.998;2022-11-21T05:17:39;3.60;99.90
15111;DHT22;7656;51.954;7.998;2022-11-21T05:22:00;3.60;99.90
15111;DHT22;7656;51.954;7.998;2022-11-21T05:26:21;3.60;99.90
15111;DHT22;7656;51.954;7.998;2022-11-21T05:30:42;3.60;99.90
15111;DHT22;7656;51.954;7.998;2022-11-21T05:35:03;3.60;99.90
15111;DHT22;7656;51.954;7.998;2022-11-21T05:39:25;3.60;99.90
15111;DHT22;7656;51.954;7.998;2022-11-21T05:43:46;3.60;99.90
15111;DHT22;7656;51.954;7.998;2022-11-21T05:48:07;3.60;99.90
15111;DHT22;7656;51.954;7.998;2022-11-21T05:52:28;3.50;99.90
15111;DHT22;7656;51.954;7.998;2022-11-21T05:56:49;3.60;99.90
15111;DHT22;7656;51.954;7.998;2022-11-21T06:01:12;3.60;99.90
15111;DHT22;7656;51.954;7.998;2022-11-21T06:05:34;3.60;99.90
15111;DHT22;7656;51.954;7.998;2022-11-21T06:09:55;3.30;99.90
15111;DHT22;7656;51.954;7.998;2022-11-21T06:14:17;3.30;99.90
15111;DHT22;7656;51.954;7.998;2022-11-21T06:18:42;3.20;99.90
15111;DHT22;7656;51.954;7.998;2022-11-21T06:23:04;3.30;99.90
15111;DHT22;7656;51.954;7.998;2022-11-21T06:27:28;3.30;99.90
15111;DHT22;7656;51.954;7.998;2022-11-21T06:31:49;3.30;99.90
15111;DHT22;7656;51.954;7.998;2022-11-21T06:36:13;2.80;99.90
15111;DHT22;7656;51.954;7.998;2022-11-21T06:40:36;3.00;99.90
15111;DHT22;7656;51.954;7.998;2022-11-21T06:44:57;3.20;99.90
15111;DHT22;7656;51.954;7.998;2022-11-21T06:49:18;3.20;99.90
15111;DHT22;7656;51.954;7.998;2022-11-21T06:53:39;3.40;99.90
15111;DHT22;7656;51.954;7.998;2022-11-21T06:58:00;3.40;99.90
15111;DHT22;7656;51.954;7.998;2022-11-21T07:02:21;3.20;99.90
15111;DHT22;7656;51.954;7.998;2022-11-21T07:06:42;3.30;99.90
15111;DHT22;7656;51.954;7.998;2022-11-21T07:11:08;3.00;99.90
15111;DHT22;7656;51.954;7.998;2022-11-21T07:15:31;2.60;99.90
15111;DHT22;7656;51.954;7.998;2022-11-21T07:19:52;2.50;99.90
15111;DHT22;7656;51.954;7.998;2022-11-21T07:24:13;2.50;99.90
15111;DHT22;7656;51.954;7.998;2022-11-21T07:28:34;2.60;99.90
15111;DHT22;7656;51.954;7.998;2022-11-21T07:33:01;2.30;99.90
15111;DHT22;7656;51.954;7.998;2022-11-21T07:37:23;2.20;99.90
15111;DHT22;7656;51.954;7.998;2022-11-21T07:41:44;2.30;99.90
15111;DHT22;7656;51.954;7.998;2022-11-21T07:46:05;2.50;99.90
15111;DHT22;7656;51.954;7.998;2022-11-21T07:50:27;2.00;99.90
15111;DHT22;7656;51.954;7.998;2022-11-21T07:54:48;1.90;99.90
15111;DHT22;7656;51.954;7.998;2022-11-21T07:59:09;2.00;99.90
15111;DHT22;7656;51.954;7.998;2022-11-21T08:03:34;2.40;99.90
15111;DHT22;7656;51.954;7.998;2022-11-21T08:07:55;2.60;99.90
15111;DHT22;7656;51.954;7.998;2022-11-21T08:12:16;2.20;99.90
15111;DHT22;7656;51.954;7.998;2022-11-21T08:16:37;1.90;99.90
15111;DHT22;7656;51.954;7.998;2022-11-21T08:21:02;2.00;99.90
15111;DHT22;7656;51.954;7.998;2022-11-21T08:25:24;1.80;99.90
15111;DHT22;7656;51.954;7.998;2022-11-21T08:29:46;1.70;99.90
15111;DHT22;7656;51.954;7.998;2022-11-21T08:34:07;1.80;99.90
15111;DHT22;7656;51.954;7.998;2022-11-21T08:38:28;1.90;99.90
15111;DHT22;7656;51.954;7.998;2022-11-21T08:43:19;2.40;99.90
15111;DHT22;7656;51.954;7.998;2022-11-21T08:47:40;2.70;99.90
15111;DHT22;7656;51.954;7.998;2022-11-21T08:52:01;2.70;99.90
15111;DHT22;7656;51.954;7.998;2022-11-21T08:56:22;2.60;99.90
15111;DHT22;7656;51.954;7.998;2022-11-21T09:00:44;2.10;99.90
15111;DHT22;7656;51.954;7.998;2022-11-21T09:05:05;2.00;99.90
15111;DHT22;7656;51.954;7.998;2022-11-21T09:09:26;2.00;99.90
15111;DHT22;7656;51.954;7.998;2022-11-21T09:13:47;2.20;99.90
15111;DHT22;7656;51.954;7.998;2022-11-21T09:18:29;2.30;99.90
15111;DHT22;7656;51.954;7.998;2022-11-21T09:22:50;2.30;99.90
15111;DHT22;7656;51.954;7.998;2022-11-21T09:27:11;2.40;99.90
15111;DHT22;7656;51.954;7.998;2022-11-21T09:31:32;2.30;99.90
15111;DHT22;7656;51.954;7.998;2022-11-21T09:35:54;2.10;99.90
15111;DHT22;7656;51.954;7.998;2022-11-21T09:40:18;2.40;99.90
15111;DHT22;7656;51.954;7.998;2022-11-21T09:49:40;2.40;99.90
15111;DHT22;7656;51.954;7.998;2022-11-21T09:58:42;2.20;99.90
15111;DHT22;7656;51.954;7.998;2022-11-21T10:03:09;1.90;99.90
15111;DHT22;7656;51.954;7.998;2022-11-21T10:07:32;1.90;99.90
15111;DHT22;7656;51.954;7.998;2022-11-21T10:17:21;1.80;99.90
15111;DHT22;7656;51.954;7.998;2022-11-21T10:31:46;1.90;99.90
15111;DHT22;7656;51.954;7.998;2022-11-21T10:36:26;2.30;99.90
15111;DHT22;7656;51.954;7.998;2022-11-21T10:41:01;2.00;99.90
15111;DHT22;7656;51.954;7.998;2022-11-21T10:45:23;1.90;99.90
15111;DHT22;7656;51.954;7.998;2022-11-21T10:49:45;1.80;99.90
15111;DHT22;7656;51.954;7.998;2022-11-21T10:54:10;1.80;99.90
15111;DHT22;7656;51.954;7.998;2022-11-21T10:58:53;1.90;99.90
15111;DHT22;7656;51.954;7.998;2022-11-21T11:03:16;2.00;99.90
15111;DHT22;7656;51.954;7.998;2022-11-21T11:07:38;2.10;99.90
15111;DHT22;7656;51.954;7.998;2022-11-21T11:12:28;1.90;99.90
15111;DHT22;7656;51.954;7.998;2022-11-21T11:17:13;1.70;99.90
15111;DHT22;7656;51.954;7.998;2022-11-21T11:21:42;1.80;99.90
15111;DHT22;7656;51.954;7.998;2022-11-21T11:30:46;2.20;99.90
15111;DHT22;7656;51.954;7.998;2022-11-21T11:39:38;2.50;99.90
15111;DHT22;7656;51.954;7.998;2022-11-21T11:44:13;2.40;99.90
15111;DHT22;7656;51.954;7.998;2022-11-21T11:49:01;2.50;99.90
15111;DHT22;7656;51.954;7.998;2022-11-21T11:53:30;2.50;99.90
15111;DHT22;7656;51.954;7.998;2022-11-21T11:57:55;2.50;99.90
15111;DHT22;7656;51.954;7.998;2022-11-21T12:02:21;2.70;99.90
15111;DHT22;7656;51.954;7.998;2022-11-21T12:11:26;2.80;99.90
15111;DHT22;7656;51.954;7.998;2022-11-21T12:16:12;2.80;99.90
15111;DHT22;7656;51.954;7.998;2022-11-21T12:20:36;2.90;99.90
15111;DHT22;7656;51.954;7.998;2022-11-21T12:24:58;3.10;99.90
15111;DHT22;7656;51.954;7.998;2022-11-21T12:39:09;3.20;99.90
15111;DHT22;7656;51.954;7.998;2022-11-21T12:44:20;3.50;99.90
15111;DHT22;7656;51.954;7.998;2022-11-21T12:53:55;3.70;99.90
15111;DHT22;7656;51.954;7.998;2022-11-21T12:58:44;3.60;99.90
15111;DHT22;7656;51.954;7.998;2022-11-21T13:08:09;3.60;99.90
15111;DHT22;7656;51.954;7.998;2022-11-21T13:12:37;3.70;99.90
15111;DHT22;7656;51.954;7.998;2022-11-21T13:21:47;3.80;99.90
15111;DHT22;7656;51.954;7.998;2022-11-21T13:31:32;3.90;99.90
15111;DHT22;7656;51.954;7.998;2022-11-21T13:35:54;4.10;99.90
15111;DHT22;7656;51.954;7.998;2022-11-21T13:44:46;5.00;99.90
15111;DHT22;7656;51.954;7.998;2022-11-21T13:49:13;5.00;99.90
15111;DHT22;7656;51.954;7.998;2022-11-21T13:58:57;4.40;99.90
15111;DHT22;7656;51.954;7.998;2022-11-21T14:03:29;4.50;99.90
15111;DHT22;7656;51.954;7.998;2022-11-21T14:08:23;4.40;99.90
15111;DHT22;7656;51.954;7.998;2022-11-21T14:12:48;4.20;99.90
15111;DHT22;7656;51.954;7.998;2022-11-21T14:17:31;4.30;99.90
15111;DHT22;7656;51.954;7.998;2022-11-21T14:21:55;4.30;99.90
15111;DHT22;7656;51.954;7.998;2022-11-21T14:26:18;4.30;99.90
15111;DHT22;7656;51.954;7.998;2022-11-21T14:30:43;4.20;99.90
15111;DHT22;7656;51.954;7.998;2022-11-21T14:35:19;4.20;99.90
15111;DHT22;7656;51.954;7.998;2022-11-21T14:39:42;4.10;99.90
15111;DHT22;7656;51.954;7.998;2022-11-21T14:44:06;3.90;99.90
15111;DHT22;7656;51.954;7.998;2022-11-21T14:48:34;3.90;99.90
15111;DHT22;7656;51.954;7.998;2022-11-21T14:52:55;3.90;99.90
15111;DHT22;7656;51.954;7.998;2022-11-21T14:57:28;3.90;99.90
15111;DHT22;7656;51.954;7.998;2022-11-21T15:02:12;3.90;99.90
15111;DHT22;7656;51.954;7.998;2022-11-21T15:06:43;3.80;99.90
15111;DHT22;7656;51.954;7.998;2022-11-21T15:11:04;3.70;99.90
15111;DHT22;7656;51.954;7.998;2022-11-21T15:15:41;3.60;99.90
15111;DHT22;7656;51.954;7.998;2022-11-21T15:29:02;3.60;99.90
15111;DHT22;7656;51.954;7.998;2022-11-21T15:33:23;3.60;99.90
15111;DHT22;7656;51.954;7.998;2022-11-21T15:37:47;3.50;99.90
15111;DHT22;7656;51.954;7.998;2022-11-21T15:42:33;3.50;99.90
15111;DHT22;7656;51.954;7.998;2022-11-21T15:46:56;3.70;99.90
15111;DHT22;7656;51.954;7.998;2022-11-21T15:51:19;4.00;99.90
15111;DHT22;7656;51.954;7.998;2022-11-21T15:55:41;3.60;99.90
15111;DHT22;7656;51.954;7.998;2022-11-21T16:00:02;3.60;99.90
15111;DHT22;7656;51.954;7.998;2022-11-21T16:04:32;3.80;99.90
15111;DHT22;7656;51.954;7.998;2022-11-21T16:08:53;3.30;99.90
15111;DHT22;7656;51.954;7.998;2022-11-21T16:13:14;3.00;99.90
15111;DHT22;7656;51.954;7.998;2022-11-21T16:17:35;3.10;99.90
15111;DHT22;7656;51.954;7.998;2022-11-21T16:21:58;2.90;99.90
15111;DHT22;7656;51.954;7.998;2022-11-21T16:26:19;2.90;99.90
15111;DHT22;7656;51.954;7.998;2022-11-21T16:30:41;2.80;99.90
15111;DHT22;7656;51.954;7.998;2022-11-21T16:35:03;2.70;99.90
15111;DHT22;7656;51.954;7.998;2022-11-21T16:39:25;2.80;99.90
15111;DHT22;7656;51.954;7.998;2022-11-21T16:43:48;2.70;99.90
15111;DHT22;7656;51.954;7.998;2022-11-21T16:48:11;2.70;99.90
15111;DHT22;7656;51.954;7.998;2022-11-21T16:52:33;2.60;99.90
15111;DHT22;7656;51.954;7.998;2022-11-21T16:56:55;2.70;99.90
15111;DHT22;7656;51.954;7.998;2022-11-21T17:01:18;2.80;99.90
15111;DHT22;7656;51.954;7.998;2022-11-21T17:05:40;2.70;99.90
15111;DHT22;7656;51.954;7.998;2022-11-21T17:10:01;2.40;99.90
15111;DHT22;7656;51.954;7.998;2022-11-21T17:14:23;2.30;99.90
15111;DHT22;7656;51.954;7.998;2022-11-21T17:18:44;2.30;99.90
15111;DHT22;7656;51.954;7.998;2022-11-21T17:23:05;2.20;99.90
15111;DHT22;7656;51.954;7.998;2022-11-21T17:27:26;2.10;99.90
15111;DHT22;7656;51.954;7.998;2022-11-21T17:31:49;2.40;99.90
15111;DHT22;7656;51.954;7.998;2022-11-21T17:36:12;2.50;99.90
15111;DHT22;7656;51.954;7.998;2022-11-21T17:40:34;2.30;99.90
15111;DHT22;7656;51.954;7.998;2022-11-21T17:44:57;2.30;99.90
15111;DHT22;7656;51.954;7.998;2022-11-21T17:49:18;2.40;99.90
15111;DHT22;7656;51.954;7.998;2022-11-21T17:53:41;2.30;99.90
15111;DHT22;7656;51.954;7.998;2022-11-21T17:58:04;2.50;99.90
15111;DHT22;7656;51.954;7.998;2022-11-21T18:02:25;2.40;99.90
15111;DHT22;7656;51.954;7.998;2022-11-21T18:06:47;2.30;99.90
15111;DHT22;7656;51.954;7.998;2022-11-21T18:11:10;2.30;99.90
15111;DHT22;7656;51.954;7.998;2022-11-21T18:15:33;2.50;99.90
15111;DHT22;7656;51.954;7.998;2022-11-21T18:19:54;2.60;99.90
15111;DHT22;7656;51.954;7.998;2022-11-21T18:24:15;2.50;99.90
15111;DHT22;7656;51.954;7.998;2022-11-21T18:28:36;2.30;99.90
15111;DHT22;7656;51.954;7.998;2022-11-21T18:32:57;2.30;99.90
15111;DHT22;7656;51.954;7.998;2022-11-21T18:37:18;2.50;99.90
15111;DHT22;7656;51.954;7.998;2022-11-21T18:41:39;2.40;99.90
15111;DHT22;7656;51.954;7.998;2022-11-21T18:46:11;2.60;99.90
15111;DHT22;7656;51.954;7.998;2022-11-21T18:50:33;2.70;99.90
15111;DHT22;7656;51.954;7.998;2022-11-21T18:54:54;2.90;99.90
15111;DHT22;7656;51.954;7.998;2022-11-21T18:59:15;2.80;99.90
15111;DHT22;7656;51.954;7.998;2022-11-21T19:03:37;2.80;99.90
15111;DHT22;7656;51.954;7.998;2022-11-21T19:07:58;2.50;99.90
15111;DHT22;7656;51.954;7.998;2022-11-21T19:12:19;2.50;99.90
15111;DHT22;7656;51.954;7.998;2022-11-21T19:16:40;2.30;99.90
15111;DHT22;7656;51.954;7.998;2022-11-21T19:21:03;2.20;99.90
15111;DHT22;7656;51.954;7.998;2022-11-21T19:25:30;2.20;99.90
15111;DHT22;7656;51.954;7.998;2022-11-21T19:29:51;2.30;99.90
15111;DHT22;7656;51.954;7.998;2022-11-21T19:34:15;2.20;99.90
15111;DHT22;7656;51.954;7.998;2022-11-21T19:38:36;2.20;99.90
15111;DHT22;7656;51.954;7.998;2022-11-21T19:42:57;2.20;99.90
15111;DHT22;7656;51.954;7.998;2022-11-21T19:47:19;2.20;99.90
15111;DHT22;7656;51.954;7.998;2022-11-21T19:51:40;2.30;99.90
15111;DHT22;7656;51.954;7.998;2022-11-21T19:56:12;2.30;99.90
15111;DHT22;7656;51.954;7.998;2022-11-21T20:00:40;2.40;99.90
15111;DHT22;7656;51.954;7.998;2022-11-21T20:05:01;2.40;99.90
15111;DHT22;7656;51.954;7.998;2022-11-21T20:09:22;2.40;99.90
15111;DHT22;7656;51.954;7.998;2022-11-21T20:13:44;2.50;99.90
15111;DHT22;7656;51.954;7.998;2022-11-21T20:18:06;2.60;99.90
15111;DHT22;7656;51.954;7.998;2022-11-21T20:22:28;2.60;99.90
15111;DHT22;7656;51.954;7.998;2022-11-21T20:26:49;2.70;99.90
15111;DHT22;7656;51.954;7.998;2022-11-21T20:31:14;2.80;99.90
15111;DHT22;7656;51.954;7.998;2022-11-21T20:35:39;2.90;99.90
15111;DHT22;7656;51.954;7.998;2022-11-21T20:40:02;3.20;99.90
15111;DHT22;7656;51.954;7.998;2022-11-21T20:44:24;3.20;99.90
15111;DHT22;7656;51.954;7.998;2022-11-21T20:48:45;3.10;99.90
15111;DHT22;7656;51.954;7.998;2022-11-21T20:53:06;3.10;99.90
15111;DHT22;7656;51.954;7.998;2022-11-21T20:57:27;3.10;99.90
15111;DHT22;7656;51.954;7.998;2022-11-21T21:01:50;3.00;99.90
15111;DHT22;7656;51.954;7.998;2022-11-21T21:06:13;3.00;99.90
15111;DHT22;7656;51.954;7.998;2022-11-21T21:10:35;3.00;99.90
15111;DHT22;7656;51.954;7.998;2022-11-21T21:14:56;3.00;99.90
15111;DHT22;7656;51.954;7.998;2022-11-21T21:19:17;3.00;99.90
15111;DHT22;7656;51.954;7.998;2022-11-21T21:23:40;3.10;99.90
15111;DHT22;7656;51.954;7.998;2022-11-21T21:28:02;3.00;99.90
15111;DHT22;7656;51.954;7.998;2022-11-21T21:32:23;3.00;99.90
15111;DHT22;7656;51.954;7.998;2022-11-21T21:36:45;3.00;99.90
15111;DHT22;7656;51.954;7.998;2022-11-21T21:41:09;3.10;99.90
15111;DHT22;7656;51.954;7.998;2022-11-21T21:45:31;3.00;99.90
15111;DHT22;7656;51.954;7.998;2022-11-21T21:49:52;3.00;99.90
15111;DHT22;7656;51.954;7.998;2022-11-21T21:54:16;3.10;99.90
15111;DHT22;7656;51.954;7.998;2022-11-21T21:58:39;3.10;99.90
15111;DHT22;7656;51.954;7.998;2022-11-21T22:03:01;3.10;99.90
15111;DHT22;7656;51.954;7.998;2022-11-21T22:07:22;3.10;99.90
15111;DHT22;7656;51.954;7.998;2022-11-21T22:11:43;3.30;99.90
15111;DHT22;7656;51.954;7.998;2022-11-21T22:16:05;3.20;99.90
15111;DHT22;7656;51.954;7.998;2022-11-21T22:20:28;3.40;99.90
15111;DHT22;7656;51.954;7.998;2022-11-21T22:24:49;3.50;99.90
15111;DHT22;7656;51.954;7.998;2022-11-21T22:29:10;3.50;99.90
15111;DHT22;7656;51.954;7.998;2022-11-21T22:33:32;3.60;99.90
15111;DHT22;7656;51.954;7.998;2022-11-21T22:37:53;3.70;99.90
15111;DHT22;7656;51.954;7.998;2022-11-21T22:42:14;3.60;99.90
15111;DHT22;7656;51.954;7.998;2022-11-21T22:46:35;3.60;99.90
15111;DHT22;7656;51.954;7.998;2022-11-21T22:50:56;3.70;99.90
15111;DHT22;7656;51.954;7.998;2022-11-21T22:55:18;3.90;99.90
15111;DHT22;7656;51.954;7.998;2022-11-21T22:59:39;4.00;99.90
15111;DHT22;7656;51.954;7.998;2022-11-21T23:04:00;3.90;99.90
15111;DHT22;7656;51.954;7.998;2022-11-21T23:08:21;3.90;99.90
15111;DHT22;7656;51.954;7.998;2022-11-21T23:12:42;3.70;99.90
15111;DHT22;7656;51.954;7.998;2022-11-21T23:17:03;3.60;99.90
15111;DHT22;7656;51.954;7.998;2022-11-21T23:21:24;3.80;99.90
15111;DHT22;7656;51.954;7.998;2022-11-21T23:25:45;3.80;99.90
15111;DHT22;7656;51.954;7.998;2022-11-21T23:30:07;3.80;99.90
15111;DHT22;7656;51.954;7.998;2022-11-21T23:34:28;3.80;99.90
15111;DHT22;7656;51.954;7.998;2022-11-21T23:38:49;3.90;99.90
15111;DHT22;7656;51.954;7.998;2022-11-21T23:43:11;4.00;99.90
15111;DHT22;7656;51.954;7.998;2022-11-21T23:47:33;4.00;99.90
15111;DHT22;7656;51.954;7.998;2022-11-21T23:51:54;4.00;99.90
15111;DHT22;7656;51.954;7.998;2022-11-21T23:56:15;4.10;99.90
